Time;durP1;ratioP1;P1;durP2;ratioP2;P2;SDS_P1;SDS_P2;PMS_P1;PMS_P2;Temp;Humidity;BMP_temperature;BMP_pressure;BME280_temperature;BME280_humidity;BME280_pressure;Samples;Min_cycle;Max_cycle;Signal;HPM_P1;HPM_P2
2022/07/27 00:00:28;;;;;;;;;2.00;1.00;35.70;99.90;;;;;;4868991;29;9498;-72
2022/07/27 00:02:59;;;;;;;;;0.00;0.00;35.60;99.90;;;;;;4861024;29;8936;-75
2022/07/27 00:05:29;;;;;;;;;0.80;0.80;35.60;99.90;;;;;;4854390;29;8873;-75
2022/07/27 00:07:59;;;;;;;;;1.00;1.00;35.50;99.90;;;;;;4855041;29;8886;-73
2022/07/27 00:10:31;;;;;;;;;0.80;0.80;35.60;99.90;;;;;;4849164;29;8880;-73
2022/07/27 00:13:04;;;;;;;;;0.00;0.00;35.50;99.90;;;;;;4837893;29;8873;-75
2022/07/27 00:15:35;;;;;;;;;1.00;1.00;35.40;99.90;;;;;;4855873;29;8841;-76
2022/07/27 00:18:06;;;;;;;;;1.00;0.80;35.50;99.90;;;;;;4853681;29;8904;-73
2022/07/27 00:20:39;;;;;;;;;1.40;0.80;35.50;99.90;;;;;;4857846;29;8826;-73
2022/07/27 00:23:10;;;;;;;;;1.60;1.60;35.40;99.90;;;;;;4853971;29;8858;-75
2022/07/27 00:25:44;;;;;;;;;2.80;0.80;35.50;99.90;;;;;;4839344;29;8853;-75
2022/07/27 00:28:17;;;;;;;;;0.80;0.80;35.50;99.90;;;;;;4853600;29;8888;-75
2022/07/27 00:30:48;;;;;;;;;0.80;0.80;35.60;99.90;;;;;;4841340;29;8850;-75
2022/07/27 00:33:20;;;;;;;;;0.80;0.80;35.50;99.90;;;;;;4855811;29;9569;-75
2022/07/27 00:35:51;;;;;;;;;0.80;0.80;35.50;99.90;;;;;;4852926;29;8907;-75
2022/07/27 00:38:28;;;;;;;;;1.80;0.20;35.40;99.90;;;;;;4858244;29;8873;-75
2022/07/27 00:40:57;;;;;;;;;1.40;1.40;35.40;99.90;;;;;;4840962;29;8877;-73
2022/07/27 00:43:28;;;;;;;;;0.80;0.80;35.30;99.90;;;;;;4851926;29;8924;-72
2022/07/27 00:45:57;;;;;;;;;1.60;1.60;35.20;99.90;;;;;;4850290;29;8915;-75
2022/07/27 00:48:32;;;;;;;;;2.80;1.80;35.10;99.90;;;;;;4849448;29;8883;-75
2022/07/27 00:51:06;;;;;;;;;1.80;1.80;35.10;99.90;;;;;;4855591;29;8881;-76
2022/07/27 00:53:36;;;;;;;;;2.00;2.00;35.10;99.90;;;;;;4851905;29;9659;-75
2022/07/27 00:56:08;;;;;;;;;2.00;1.00;35.00;99.90;;;;;;4851328;29;8861;-75
2022/07/27 00:58:40;;;;;;;;;0.00;0.00;34.90;99.90;;;;;;4834494;29;8873;-76
2022/07/27 01:01:20;;;;;;;;;1.00;1.00;34.90;99.90;;;;;;4838413;29;8886;-73
2022/07/27 01:03:54;;;;;;;;;1.00;1.00;34.90;99.90;;;;;;4849342;29;8877;-73
2022/07/27 01:06:33;;;;;;;;;1.00;1.00;34.80;99.90;;;;;;4848680;29;8913;-76
2022/07/27 01:11:58;;;;;;;;;1.00;1.00;34.70;99.90;;;;;;4850601;29;8872;-73
2022/07/27 01:14:31;;;;;;;;;0.20;0.20;34.80;99.90;;;;;;4852552;29;9855;-73
2022/07/27 01:17:03;;;;;;;;;1.00;1.00;34.60;99.90;;;;;;4849281;29;8919;-76
2022/07/27 01:19:48;;;;;;;;;1.00;1.00;34.60;99.90;;;;;;4837271;29;8858;-75
2022/07/27 01:22:23;;;;;;;;;1.00;1.00;34.50;99.90;;;;;;4853483;29;8861;-76
2022/07/27 01:25:00;;;;;;;;;1.00;1.00;34.30;99.90;;;;;;4838337;29;8881;-76
2022/07/27 01:27:29;;;;;;;;;1.00;1.00;34.20;99.90;;;;;;4851417;29;8874;-76
2022/07/27 01:30:25;;;;;;;;;1.00;1.00;34.30;99.90;;;;;;4834843;29;8864;-75
2022/07/27 01:33:03;;;;;;;;;0.80;0.80;34.30;99.90;;;;;;4850380;29;8865;-73
2022/07/27 01:35:41;;;;;;;;;2.00;2.00;34.20;99.90;;;;;;4852326;29;8845;-74
2022/07/27 01:38:14;;;;;;;;;1.20;1.20;34.10;99.90;;;;;;4851848;29;8870;-76
2022/07/27 01:40:46;;;;;;;;;1.00;1.00;34.10;99.90;;;;;;4853133;29;8996;-76
2022/07/27 01:43:16;;;;;;;;;1.00;1.00;34.00;99.90;;;;;;4852624;29;8928;-75
2022/07/27 01:45:46;;;;;;;;;2.00;1.00;34.00;99.90;;;;;;4858409;29;8889;-73
2022/07/27 01:48:20;;;;;;;;;1.60;1.60;34.00;99.90;;;;;;4852331;29;8900;-72
2022/07/27 01:50:51;;;;;;;;;1.00;1.00;34.00;99.90;;;;;;4846325;29;8858;-74
2022/07/27 01:53:25;;;;;;;;;1.00;1.00;34.00;99.90;;;;;;4847080;29;8895;-74
2022/07/27 01:55:56;;;;;;;;;0.00;0.00;34.00;99.90;;;;;;4851903;29;8846;-74
2022/07/27 01:58:29;;;;;;;;;3.00;1.40;34.00;99.90;;;;;;4873367;29;8903;-76
2022/07/27 02:01:02;;;;;;;;;3.00;2.00;34.00;99.90;;;;;;4865002;29;8868;-77
2022/07/27 02:03:35;;;;;;;;;1.80;1.80;33.70;99.90;;;;;;4841068;29;8892;-77
2022/07/27 02:06:07;;;;;;;;;1.20;1.20;33.60;99.90;;;;;;4847981;29;8885;-77
2022/07/27 02:08:41;;;;;;;;;1.00;1.00;33.50;99.90;;;;;;4855081;29;8895;-77
2022/07/27 02:14:11;;;;;;;;;1.00;1.00;33.40;99.90;;;;;;4855436;29;8889;-77
2022/07/27 02:16:45;;;;;;;;;1.00;1.00;33.20;99.90;;;;;;4852357;29;8858;-78
2022/07/27 02:19:15;;;;;;;;;1.00;1.00;33.20;99.90;;;;;;4858685;29;8853;-76
2022/07/27 02:21:49;;;;;;;;;2.00;2.00;33.10;99.90;;;;;;4844890;29;8865;-77
2022/07/27 02:24:25;;;;;;;;;2.40;2.00;33.10;99.90;;;;;;4859067;29;9783;-76
2022/07/27 02:26:56;;;;;;;;;1.00;1.00;33.00;99.90;;;;;;4844103;29;8869;-77
2022/07/27 02:29:29;;;;;;;;;2.00;1.00;32.90;99.90;;;;;;4849680;29;9034;-75
2022/07/27 02:32:01;;;;;;;;;1.00;1.00;32.90;99.90;;;;;;4847696;29;8882;-75
2022/07/27 02:34:36;;;;;;;;;2.00;2.00;32.80;99.90;;;;;;4853292;29;8846;-76
2022/07/27 02:37:09;;;;;;;;;1.00;1.00;32.80;99.90;;;;;;4852248;29;8857;-76
2022/07/27 02:39:48;;;;;;;;;2.00;2.00;32.80;99.90;;;;;;4853580;29;8917;-78
2022/07/27 02:42:19;;;;;;;;;1.20;1.20;32.70;99.90;;;;;;4853790;29;9639;-76
2022/07/27 02:44:51;;;;;;;;;2.40;2.20;32.70;99.90;;;;;;4854099;29;8876;-75
2022/07/27 02:47:24;;;;;;;;;1.00;1.00;32.60;99.90;;;;;;4854935;29;9631;-77
2022/07/27 02:49:54;;;;;;;;;2.00;2.00;32.60;99.90;;;;;;4852298;29;9458;-78
2022/07/27 02:52:26;;;;;;;;;2.00;2.00;32.60;99.90;;;;;;4851239;29;8896;-74
2022/07/27 02:54:58;;;;;;;;;2.60;2.00;32.60;99.90;;;;;;4847836;29;8873;-76
2022/07/27 02:57:33;;;;;;;;;1.00;1.00;32.50;99.90;;;;;;4844356;29;8846;-75
2022/07/27 03:00:15;;;;;;;;;1.20;1.20;32.50;99.90;;;;;;4830046;29;8881;-76
2022/07/27 03:02:48;;;;;;;;;3.20;3.20;32.50;99.90;;;;;;4848921;29;8940;-77
2022/07/27 03:05:20;;;;;;;;;2.00;2.00;32.30;99.90;;;;;;4830016;29;8900;-76
2022/07/27 03:07:52;;;;;;;;;2.00;2.00;32.30;99.90;;;;;;4847396;29;8893;-77
2022/07/27 03:10:27;;;;;;;;;1.40;1.20;32.30;99.90;;;;;;4848672;29;9660;-77
2022/07/27 03:13:00;;;;;;;;;2.00;2.00;32.30;99.90;;;;;;4832611;29;9035;-76
2022/07/27 03:15:33;;;;;;;;;1.00;1.00;32.30;99.90;;;;;;4829004;29;8882;-77
2022/07/27 03:18:05;;;;;;;;;2.00;2.00;32.30;99.90;;;;;;4846438;29;8883;-77
2022/07/27 03:20:36;;;;;;;;;3.00;3.00;32.30;99.90;;;;;;4847048;29;8917;-78
2022/07/27 03:23:15;;;;;;;;;3.00;2.00;32.20;99.90;;;;;;4847304;29;8894;-76
2022/07/27 03:25:50;;;;;;;;;2.80;2.80;32.10;99.90;;;;;;4845662;29;9675;-77
2022/07/27 03:28:27;;;;;;;;;1.00;1.00;32.00;99.90;;;;;;4847069;29;8873;-78
2022/07/27 03:30:57;;;;;;;;;2.00;2.00;31.90;99.90;;;;;;4857139;29;8892;-78
2022/07/27 03:33:32;;;;;;;;;1.60;1.60;31.90;99.90;;;;;;4826796;29;8881;-77
2022/07/27 03:36:03;;;;;;;;;1.00;1.00;31.80;99.90;;;;;;4844935;29;8884;-78
2022/07/27 03:38:36;;;;;;;;;1.00;1.00;31.70;99.90;;;;;;4851540;29;8896;-78
2022/07/27 03:41:11;;;;;;;;;1.40;1.40;31.70;99.90;;;;;;4832787;29;8865;-76
2022/07/27 03:43:45;;;;;;;;;2.00;2.00;31.60;99.90;;;;;;4833739;29;8889;-76
2022/07/27 03:46:15;;;;;;;;;1.00;1.00;31.60;99.90;;;;;;4848706;29;8885;-79
2022/07/27 03:48:46;;;;;;;;;2.00;2.00;31.60;99.90;;;;;;4850156;29;9003;-75
2022/07/27 03:51:18;;;;;;;;;1.00;1.00;31.60;99.90;;;;;;4858596;29;8857;-76
2022/07/27 03:53:48;;;;;;;;;2.00;2.00;31.50;99.90;;;;;;4850466;29;8900;-77
2022/07/27 03:56:18;;;;;;;;;2.00;2.00;31.40;99.90;;;;;;4852039;29;8869;-76
2022/07/27 03:58:51;;;;;;;;;1.00;1.00;31.40;99.90;;;;;;4853059;29;8849;-76
2022/07/27 04:01:28;;;;;;;;;2.00;2.00;31.30;99.90;;;;;;4856140;29;8901;-76
2022/07/27 04:04:02;;;;;;;;;1.00;1.00;31.20;99.90;;;;;;4853156;29;8857;-76
2022/07/27 04:06:35;;;;;;;;;1.20;1.20;31.30;99.90;;;;;;4847060;29;9684;-76
2022/07/27 04:09:07;;;;;;;;;2.00;2.00;31.20;99.90;;;;;;4849706;29;8849;-77
2022/07/27 04:11:43;;;;;;;;;2.00;2.00;31.10;99.90;;;;;;4847293;29;8857;-75
2022/07/27 04:14:20;;;;;;;;;2.80;2.00;31.00;99.90;;;;;;4852679;29;8849;-76
2022/07/27 04:17:01;;;;;;;;;1.00;1.00;31.10;99.90;;;;;;4851120;29;8874;-83
2022/07/27 04:19:35;;;;;;;;;1.40;1.40;30.90;99.90;;;;;;4837203;29;8850;-79
2022/07/27 04:22:09;;;;;;;;;1.60;1.60;31.00;99.90;;;;;;4847512;29;8916;-80
2022/07/27 04:24:45;;;;;;;;;3.20;2.00;30.90;99.90;;;;;;4842561;29;8876;-81
2022/07/27 04:27:16;;;;;;;;;2.00;2.00;30.90;99.90;;;;;;4850633;29;9574;-75
2022/07/27 04:29:49;;;;;;;;;1.00;1.00;30.80;99.90;;;;;;4850193;29;8874;-76
2022/07/27 04:32:28;;;;;;;;;1.60;1.60;30.80;99.90;;;;;;4847514;29;8861;-79
2022/07/27 04:35:00;;;;;;;;;1.00;1.00;30.70;99.90;;;;;;4851611;29;8944;-80
2022/07/27 04:37:33;;;;;;;;;1.00;1.00;30.70;99.90;;;;;;4854096;29;8897;-78
2022/07/27 04:40:10;;;;;;;;;1.80;1.00;30.60;99.90;;;;;;4847098;29;8857;-78
2022/07/27 04:42:46;;;;;;;;;0.60;0.60;30.70;99.90;;;;;;4843597;29;8869;-75
2022/07/27 04:45:17;;;;;;;;;3.60;1.00;30.60;99.90;;;;;;4831548;29;9662;-75
2022/07/27 04:47:51;;;;;;;;;1.00;1.00;30.60;99.90;;;;;;4850622;29;8850;-78
2022/07/27 04:50:22;;;;;;;;;1.20;1.20;30.50;99.90;;;;;;4842145;29;8937;-78
2022/07/27 04:53:02;;;;;;;;;0.00;0.00;30.40;99.90;;;;;;4851366;29;8866;-74
2022/07/27 04:55:34;;;;;;;;;3.20;2.00;30.30;99.90;;;;;;4863866;29;9028;-74
2022/07/27 04:58:05;;;;;;;;;2.00;1.00;30.30;99.90;;;;;;4850886;29;8896;-76
2022/07/27 05:00:38;;;;;;;;;1.00;1.00;30.30;99.90;;;;;;4861220;29;8869;-77
2022/07/27 05:03:15;;;;;;;;;1.00;1.00;30.20;99.90;;;;;;4846930;29;8861;-75
2022/07/27 05:05:46;;;;;;;;;2.00;2.00;30.20;99.90;;;;;;4843311;29;8861;-74
2022/07/27 05:08:19;;;;;;;;;1.80;1.20;30.20;99.90;;;;;;4849457;29;8873;-74
2022/07/27 05:10:50;;;;;;;;;2.80;1.80;30.20;99.90;;;;;;4843716;29;8947;-75
2022/07/27 05:13:22;;;;;;;;;3.00;1.80;30.10;99.90;;;;;;4864825;29;9589;-75
2022/07/27 05:15:53;;;;;;;;;1.20;1.20;30.10;99.90;;;;;;4846456;29;8904;-78
2022/07/27 05:18:27;;;;;;;;;1.40;1.40;30.00;99.90;;;;;;4845505;29;8869;-78
2022/07/27 05:21:07;;;;;;;;;1.00;1.00;30.00;99.90;;;;;;4848583;29;8858;-78
2022/07/27 05:23:37;;;;;;;;;1.00;1.00;29.90;99.90;;;;;;4845674;29;8861;-79
2022/07/27 05:26:08;;;;;;;;;1.00;1.00;29.80;99.90;;;;;;4830894;29;8900;-75
2022/07/27 05:28:38;;;;;;;;;1.00;1.00;29.80;99.90;;;;;;4843858;29;8866;-75
2022/07/27 05:31:08;;;;;;;;;2.80;2.00;29.70;99.90;;;;;;4847663;29;8857;-75
2022/07/27 05:33:39;;;;;;;;;1.60;1.60;29.70;99.90;;;;;;4846137;29;8926;-75
2022/07/27 05:36:21;;;;;;;;;3.00;3.00;29.70;99.90;;;;;;4862469;29;8881;-74
2022/07/27 05:38:54;;;;;;;;;2.40;2.40;29.70;99.90;;;;;;4846765;29;8884;-76
2022/07/27 05:41:29;;;;;;;;;1.40;1.40;29.70;99.90;;;;;;4848730;29;9050;-76
2022/07/27 05:44:00;;;;;;;;;3.00;2.00;29.70;99.90;;;;;;4844967;29;8859;-76
2022/07/27 05:46:41;;;;;;;;;2.00;1.60;29.60;99.90;;;;;;4843920;29;8897;-75
2022/07/27 05:49:14;;;;;;;;;2.00;2.00;29.60;99.90;;;;;;4848650;29;8895;-75
2022/07/27 05:51:47;;;;;;;;;2.00;2.00;29.50;99.90;;;;;;4842288;29;8893;-78
2022/07/27 05:54:21;;;;;;;;;1.00;1.00;29.50;99.90;;;;;;4847407;29;9640;-77
2022/07/27 05:56:53;;;;;;;;;2.00;2.00;29.50;99.90;;;;;;4846263;29;9615;-78
2022/07/27 05:59:24;;;;;;;;;1.00;1.00;29.40;99.90;;;;;;4832026;29;9972;-78
2022/07/27 06:01:55;;;;;;;;;2.00;2.00;29.40;99.90;;;;;;4831783;29;8914;-75
2022/07/27 06:04:26;;;;;;;;;2.40;2.40;29.50;99.90;;;;;;4844997;29;8890;-75
2022/07/27 06:09:54;;;;;;;;;2.20;2.20;29.30;99.90;;;;;;4849205;29;8899;-75
2022/07/27 06:12:30;;;;;;;;;1.60;1.60;29.30;99.90;;;;;;4845708;29;8919;-78
2022/07/27 06:15:00;;;;;;;;;3.00;3.00;29.10;99.90;;;;;;4849841;29;8841;-78
2022/07/27 06:17:31;;;;;;;;;2.00;2.00;29.20;99.90;;;;;;4834813;29;8936;-75
2022/07/27 06:20:04;;;;;;;;;3.60;2.80;29.00;99.90;;;;;;4846441;29;8857;-76
2022/07/27 06:22:53;;;;;;;;;2.00;2.00;29.00;99.90;;;;;;4860234;29;9637;-76
2022/07/27 06:25:24;;;;;;;;;2.00;2.00;29.00;99.90;;;;;;4831890;29;8849;-75
2022/07/27 06:28:07;;;;;;;;;4.20;3.00;29.00;99.90;;;;;;4848471;29;8818;-75
2022/07/27 06:30:41;;;;;;;;;4.00;2.20;29.00;99.90;;;;;;4851776;29;8900;-75
2022/07/27 06:33:15;;;;;;;;;2.80;2.80;29.00;99.90;;;;;;4847513;29;8867;-75
2022/07/27 06:35:47;;;;;;;;;3.00;3.00;28.80;99.90;;;;;;4831974;29;8896;-75
2022/07/27 06:38:27;;;;;;;;;3.20;2.20;28.70;99.90;;;;;;4845801;29;8874;-74
2022/07/27 06:41:02;;;;;;;;;2.00;2.00;28.70;99.90;;;;;;4849653;29;9559;-75
2022/07/27 06:43:36;;;;;;;;;5.00;2.00;28.70;99.90;;;;;;4846937;29;8960;-75
2022/07/27 06:46:11;;;;;;;;;3.40;3.40;28.70;99.90;;;;;;4848632;29;8888;-74
2022/07/27 06:48:55;;;;;;;;;2.20;2.20;28.60;99.90;;;;;;4846772;29;8841;-74
2022/07/27 06:51:24;;;;;;;;;3.40;3.40;28.60;99.90;;;;;;4843117;29;8873;-74
2022/07/27 06:53:57;;;;;;;;;3.20;3.20;28.60;99.90;;;;;;4832271;29;8854;-75
2022/07/27 06:56:27;;;;;;;;;2.80;2.00;28.50;99.90;;;;;;4850978;29;8869;-75
2022/07/27 06:58:58;;;;;;;;;3.80;2.80;28.50;99.90;;;;;;4834856;29;8878;-75
2022/07/27 07:01:30;;;;;;;;;4.40;4.40;28.50;99.90;;;;;;4849801;29;8849;-75
2022/07/27 07:04:11;;;;;;;;;3.00;3.00;28.40;99.90;;;;;;4847984;29;8885;-75
2022/07/27 07:06:41;;;;;;;;;3.00;3.00;28.40;99.90;;;;;;4848035;29;8869;-78
2022/07/27 07:09:16;;;;;;;;;1.60;1.60;28.30;99.90;;;;;;4845541;29;8866;-77
2022/07/27 07:11:50;;;;;;;;;3.00;3.00;28.30;99.90;;;;;;4864198;29;8898;-78
2022/07/27 07:14:21;;;;;;;;;0.80;0.80;28.30;99.90;;;;;;4852112;29;8849;-78
2022/07/27 07:16:55;;;;;;;;;4.40;2.80;28.20;99.90;;;;;;4847136;29;8866;-78
2022/07/27 07:19:26;;;;;;;;;4.00;3.00;28.20;99.90;;;;;;4843710;29;8881;-78
2022/07/27 07:22:02;;;;;;;;;3.00;3.00;28.20;99.90;;;;;;4832280;29;9434;-75
2022/07/27 07:24:32;;;;;;;;;3.00;3.00;28.20;99.90;;;;;;4829384;29;8854;-76
2022/07/27 07:27:09;;;;;;;;;2.40;2.40;28.10;99.90;;;;;;4848380;29;8842;-78
2022/07/27 07:29:41;;;;;;;;;2.60;2.60;28.10;99.90;;;;;;4821512;29;8882;-77
2022/07/27 07:32:11;;;;;;;;;4.00;4.00;28.10;99.90;;;;;;4848865;29;8916;-75
2022/07/27 07:34:42;;;;;;;;;3.20;3.20;28.00;99.90;;;;;;4846792;29;8866;-73
2022/07/27 07:37:17;;;;;;;;;3.00;3.00;28.10;99.90;;;;;;4849237;29;8873;-74
2022/07/27 07:39:52;;;;;;;;;3.00;3.00;27.90;99.90;;;;;;4826753;29;8895;-74
2022/07/27 07:42:23;;;;;;;;;2.20;2.20;27.90;99.90;;;;;;4832944;29;8854;-74
2022/07/27 07:44:55;;;;;;;;;3.00;3.00;27.80;99.90;;;;;;4833499;29;8877;-74
2022/07/27 07:47:26;;;;;;;;;2.60;2.60;27.90;99.90;;;;;;4849026;29;8899;-74
2022/07/27 07:50:00;;;;;;;;;2.00;2.00;27.80;99.90;;;;;;4832688;29;8888;-76
2022/07/27 07:52:33;;;;;;;;;3.00;3.00;27.70;99.90;;;;;;4834598;29;8892;-76
2022/07/27 07:55:06;;;;;;;;;1.40;1.40;27.80;99.90;;;;;;4848961;29;8854;-75
2022/07/27 07:57:40;;;;;;;;;3.00;3.00;27.80;99.90;;;;;;4849036;29;9613;-78
2022/07/27 08:00:17;;;;;;;;;2.00;2.00;27.80;99.90;;;;;;4863769;29;8875;-78
2022/07/27 08:02:56;;;;;;;;;1.20;1.20;27.80;99.90;;;;;;4848288;29;8886;-75
2022/07/27 08:05:40;;;;;;;;;3.00;3.00;27.70;99.90;;;;;;4845483;29;8885;-75
2022/07/27 08:08:16;;;;;;;;;3.20;3.00;27.60;99.90;;;;;;4848574;29;8905;-76
2022/07/27 08:10:48;;;;;;;;;3.00;3.00;27.60;99.90;;;;;;4846155;29;8873;-75
2022/07/27 08:13:22;;;;;;;;;3.20;3.20;27.50;99.90;;;;;;4857081;29;8888;-75
2022/07/27 08:15:56;;;;;;;;;3.60;3.60;27.40;99.90;;;;;;4851291;29;10524;-76
2022/07/27 08:18:29;;;;;;;;;3.60;2.00;27.40;99.90;;;;;;4840491;29;8901;-76
2022/07/27 08:20:59;;;;;;;;;3.40;3.40;27.40;99.90;;;;;;4852180;29;8846;-75
2022/07/27 08:23:30;;;;;;;;;3.80;3.80;27.40;99.90;;;;;;4830983;29;8877;-75
2022/07/27 08:26:02;;;;;;;;;3.00;3.00;27.30;99.90;;;;;;4845700;29;8830;-77
2022/07/27 08:28:37;;;;;;;;;2.60;2.60;27.30;99.90;;;;;;4849499;29;8882;-77
2022/07/27 08:31:09;;;;;;;;;2.00;2.00;27.20;99.90;;;;;;4848856;29;8884;-75
2022/07/27 08:33:55;;;;;;;;;3.40;3.40;27.10;99.90;;;;;;4848181;29;8936;-75
2022/07/27 08:36:28;;;;;;;;;2.00;2.00;27.20;99.90;;;;;;4830924;29;9585;-77
2022/07/27 08:39:07;;;;;;;;;2.60;2.20;27.20;99.90;;;;;;4837136;29;8868;-76
2022/07/27 08:41:41;;;;;;;;;2.80;2.80;27.20;99.90;;;;;;4853044;29;8863;-76
2022/07/27 08:44:18;;;;;;;;;2.00;2.00;27.20;99.90;;;;;;4853727;29;8856;-77
2022/07/27 08:46:50;;;;;;;;;3.40;3.40;27.10;99.90;;;;;;4848319;29;8885;-75
2022/07/27 08:49:28;;;;;;;;;2.00;2.00;27.00;99.90;;;;;;4833780;29;8885;-74
2022/07/27 08:52:16;;;;;;;;;2.00;2.00;27.10;99.90;;;;;;4863192;29;9675;-75
2022/07/27 08:54:56;;;;;;;;;3.00;3.00;27.10;99.90;;;;;;4847197;29;8857;-75
2022/07/27 08:57:29;;;;;;;;;2.20;2.20;27.10;99.90;;;;;;4832525;29;9627;-75
2022/07/27 09:00:05;;;;;;;;;2.00;2.00;27.00;99.90;;;;;;4842937;29;8869;-76
2022/07/27 09:02:39;;;;;;;;;3.00;3.00;27.10;99.90;;;;;;4830361;29;8903;-75
2022/07/27 09:05:19;;;;;;;;;3.00;3.00;27.10;99.90;;;;;;4846340;29;8909;-73
2022/07/27 09:07:52;;;;;;;;;1.80;1.80;27.10;99.90;;;;;;4860331;29;8861;-74
2022/07/27 09:10:37;;;;;;;;;2.20;2.20;27.00;99.90;;;;;;4844546;29;8903;-74
2022/07/27 09:13:17;;;;;;;;;4.00;2.40;26.90;99.90;;;;;;4829365;29;8857;-75
2022/07/27 09:15:57;;;;;;;;;3.00;3.00;26.90;99.90;;;;;;4833992;29;8869;-74
2022/07/27 09:18:57;;;;;;;;;2.60;2.60;26.70;99.90;;;;;;4844653;29;8885;-75
2022/07/27 09:21:31;;;;;;;;;2.80;2.80;26.90;99.90;;;;;;4832241;29;8841;-75
2022/07/27 09:24:13;;;;;;;;;2.50;2.50;26.80;99.90;;;;;;4830519;29;8851;-75
2022/07/27 09:27:08;;;;;;;;;2.80;2.80;26.80;99.90;;;;;;4845046;29;8889;-75
2022/07/27 09:29:43;;;;;;;;;3.00;3.00;26.70;99.90;;;;;;4843969;29;8855;-75
2022/07/27 09:32:17;;;;;;;;;2.80;2.80;26.60;99.90;;;;;;4844993;29;8941;-78
2022/07/27 09:34:54;;;;;;;;;5.00;3.00;26.70;99.90;;;;;;4845268;29;8825;-77
2022/07/27 09:37:35;;;;;;;;;5.00;3.25;26.70;99.90;;;;;;4843661;29;8894;-75
2022/07/27 09:40:26;;;;;;;;;5.25;5.25;26.60;99.90;;;;;;4833998;29;8893;-76
2022/07/27 09:43:12;;;;;;;;;3.75;3.75;26.60;99.90;;;;;;4832640;29;8893;-76
2022/07/27 09:46:07;;;;;;;;;4.00;4.00;26.70;99.90;;;;;;4846229;29;8893;-76
2022/07/27 09:48:39;;;;;;;;;3.25;3.25;26.60;99.90;;;;;;4862696;29;8893;-75
2022/07/27 09:51:11;;;;;;;;;3.00;3.00;26.60;99.90;;;;;;4847404;29;8860;-75
2022/07/27 09:54:07;;;;;;;;;4.00;4.00;26.50;99.90;;;;;;4845298;29;9615;-76
2022/07/27 09:56:40;;;;;;;;;5.00;5.00;26.40;99.90;;;;;;4847966;29;8865;-76
2022/07/27 09:59:18;;;;;;;;;4.25;4.25;26.50;99.90;;;;;;4845231;29;9631;-76
2022/07/27 10:01:54;;;;;;;;;4.75;4.75;26.40;99.90;;;;;;4829236;29;8900;-76
2022/07/27 10:04:31;;;;;;;;;4.00;4.00;26.40;99.90;;;;;;4826536;29;8866;-75
2022/07/27 10:07:01;;;;;;;;;6.00;6.00;26.30;99.90;;;;;;4859421;29;8898;-76
2022/07/27 10:09:40;;;;;;;;;4.25;4.25;26.30;99.90;;;;;;4849982;29;8926;-76
2022/07/27 10:12:14;;;;;;;;;6.00;6.00;26.40;99.90;;;;;;4825447;29;8869;-75
2022/07/27 10:14:46;;;;;;;;;4.25;4.25;26.30;99.90;;;;;;4847086;29;8863;-76
2022/07/27 10:17:19;;;;;;;;;5.00;5.00;26.40;99.90;;;;;;4830869;29;8893;-74
2022/07/27 10:19:57;;;;;;;;;5.50;5.50;26.30;99.90;;;;;;4853498;29;8865;-74
2022/07/27 10:22:49;;;;;;;;;5.00;5.00;26.20;99.90;;;;;;4849342;29;8877;-74
2022/07/27 10:25:19;;;;;;;;;6.00;6.00;26.30;99.90;;;;;;4844989;29;8857;-75
2022/07/27 10:28:16;;;;;;;;;5.50;5.50;26.20;99.90;;;;;;4847663;29;8890;-76
2022/07/27 10:30:46;;;;;;;;;6.25;6.25;26.20;99.90;;;;;;4849682;29;9418;-76
2022/07/27 10:33:47;;;;;;;;;7.00;6.50;26.30;99.90;;;;;;4850463;29;8843;-76
2022/07/27 10:36:40;;;;;;;;;6.50;6.50;26.30;99.90;;;;;;4850261;29;8857;-75
2022/07/27 10:39:29;;;;;;;;;6.25;6.25;26.20;99.90;;;;;;4848182;29;8897;-75
2022/07/27 10:42:28;;;;;;;;;6.50;6.00;26.20;99.90;;;;;;4845364;29;8874;-75
2022/07/27 10:45:16;;;;;;;;;6.75;6.75;26.10;99.90;;;;;;4830649;29;8854;-75
2022/07/27 10:47:49;;;;;;;;;7.00;7.00;26.10;99.90;;;;;;4833915;29;8861;-75
2022/07/27 10:50:28;;;;;;;;;7.25;7.25;26.00;99.90;;;;;;4862432;29;8900;-74
2022/07/27 10:53:06;;;;;;;;;5.00;5.00;25.90;99.90;;;;;;4835137;29;8930;-74
2022/07/27 10:55:41;;;;;;;;;8.00;6.50;25.90;99.90;;;;;;4849383;29;8885;-74
2022/07/27 10:58:41;;;;;;;;;7.25;6.00;25.90;99.90;;;;;;4852924;29;8876;-74
2022/07/27 11:01:17;;;;;;;;;6.25;6.25;26.00;99.90;;;;;;4831521;29;9588;-76
2022/07/27 11:03:51;;;;;;;;;6.00;6.00;25.90;99.90;;;;;;4828831;29;8876;-76
2022/07/27 11:06:24;;;;;;;;;3.25;3.25;25.90;99.90;;;;;;4861835;29;8935;-75
2022/07/27 11:09:13;;;;;;;;;5.75;5.75;25.90;99.90;;;;;;4845032;29;8857;-75
2022/07/27 11:12:05;;;;;;;;;7.00;7.00;25.90;99.90;;;;;;4846331;29;8896;-74
2022/07/27 11:14:49;;;;;;;;;6.00;6.00;25.90;99.90;;;;;;4850837;29;8860;-75
2022/07/27 11:17:26;;;;;;;;;5.50;5.50;25.90;99.90;;;;;;4846264;29;8872;-75
2022/07/27 11:20:23;;;;;;;;;6.75;6.75;25.90;99.90;;;;;;4848138;29;8911;-75
2022/07/27 11:23:01;;;;;;;;;5.00;5.00;25.70;99.90;;;;;;4850566;29;8889;-75
2022/07/27 11:26:02;;;;;;;;;6.75;6.75;25.70;99.90;;;;;;4851325;29;8862;-75
2022/07/27 11:28:37;;;;;;;;;6.75;6.75;25.70;99.90;;;;;;4834555;29;8898;-75
2022/07/27 11:31:10;;;;;;;;;4.50;4.50;25.70;99.90;;;;;;4833176;29;8878;-74
2022/07/27 11:33:58;;;;;;;;;7.00;7.00;25.70;99.90;;;;;;4838594;29;8898;-73
2022/07/27 11:36:44;;;;;;;;;4.75;4.75;25.70;99.90;;;;;;4832590;29;8885;-76
2022/07/27 11:39:25;;;;;;;;;3.75;3.75;25.70;99.90;;;;;;4852463;29;8858;-74
2022/07/27 11:42:20;;;;;;;;;6.25;6.25;25.60;99.90;;;;;;4832381;29;8862;-74
2022/07/27 11:44:55;;;;;;;;;5.25;5.25;25.70;99.90;;;;;;4834393;29;8893;-74
2022/07/27 11:47:28;;;;;;;;;7.50;7.50;25.60;99.90;;;;;;4848253;29;10183;-76
2022/07/27 11:50:07;;;;;;;;;6.75;6.00;25.50;99.90;;;;;;4848891;29;8900;-77
2022/07/27 11:52:39;;;;;;;;;7.50;7.50;25.50;99.90;;;;;;4848370;29;9585;-74
2022/07/27 11:55:11;;;;;;;;;7.25;7.25;25.50;99.90;;;;;;4834165;29;8947;-74
2022/07/27 11:57:42;;;;;;;;;6.00;6.00;25.50;99.90;;;;;;4835049;29;9636;-74
2022/07/27 12:00:17;;;;;;;;;6.67;6.67;25.50;99.90;;;;;;4834771;29;8861;-74
2022/07/27 12:02:50;;;;;;;;;7.00;6.00;25.50;99.90;;;;;;4827034;29;9610;-75
2022/07/27 12:05:22;;;;;;;;;6.75;6.75;25.60;99.90;;;;;;4831784;29;8907;-73
2022/07/27 12:07:55;;;;;;;;;5.50;5.50;25.60;99.90;;;;;;4833589;29;8869;-76
2022/07/27 12:10:25;;;;;;;;;5.25;5.25;25.50;99.90;;;;;;4849555;29;8849;-78
2022/07/27 12:12:58;;;;;;;;;5.25;5.25;25.60;99.90;;;;;;4868963;29;8877;-75
2022/07/27 12:15:34;;;;;;;;;5.75;5.75;25.60;99.90;;;;;;4850701;29;8880;-75
2022/07/27 12:18:14;;;;;;;;;7.25;7.25;25.60;99.90;;;;;;4849532;29;8887;-75
2022/07/27 12:20:50;;;;;;;;;6.00;6.00;25.60;99.90;;;;;;4850515;29;8999;-77
2022/07/27 12:23:29;;;;;;;;;6.50;6.00;25.60;99.90;;;;;;4845287;29;8868;-77
2022/07/27 12:26:17;;;;;;;;;6.75;6.75;25.70;99.90;;;;;;4834373;29;8904;-74
2022/07/27 12:29:11;;;;;;;;;7.50;7.50;25.80;99.90;;;;;;4849436;29;9038;-74
2022/07/27 12:31:49;;;;;;;;;6.00;6.00;25.70;99.90;;;;;;4848961;29;8852;-74
2022/07/27 12:34:22;;;;;;;;;5.25;5.25;25.70;99.90;;;;;;4863786;29;8885;-74
2022/07/27 12:36:56;;;;;;;;;6.50;6.50;25.70;99.90;;;;;;4850723;29;8846;-75
2022/07/27 12:39:31;;;;;;;;;6.50;6.50;25.70;99.90;;;;;;4851894;29;8885;-76
2022/07/27 12:42:08;;;;;;;;;7.00;5.75;25.80;99.90;;;;;;4851106;29;8904;-77
2022/07/27 12:44:52;;;;;;;;;3.25;3.25;25.80;99.90;;;;;;4849978;29;8866;-78
2022/07/27 12:47:41;;;;;;;;;8.50;6.25;25.80;99.90;;;;;;4852458;29;8857;-75
2022/07/27 12:50:14;;;;;;;;;4.25;4.25;25.80;99.90;;;;;;4854009;29;8838;-76
2022/07/27 12:52:52;;;;;;;;;7.00;7.00;25.80;99.90;;;;;;4854120;29;8876;-75
2022/07/27 12:55:23;;;;;;;;;6.25;6.25;25.80;99.90;;;;;;4822315;29;8865;-75
2022/07/27 12:57:55;;;;;;;;;6.00;6.00;25.90;99.90;;;;;;4858423;29;8845;-76
2022/07/27 13:00:29;;;;;;;;;6.75;6.75;26.00;99.90;;;;;;4859811;29;8904;-75
2022/07/27 13:03:04;;;;;;;;;6.75;6.75;26.10;99.90;;;;;;4855275;29;8864;-74
2022/07/27 13:05:37;;;;;;;;;7.50;7.50;26.10;99.90;;;;;;4838441;29;9549;-74
2022/07/27 13:08:12;;;;;;;;;7.50;7.50;26.10;99.90;;;;;;4848572;29;8857;-74
2022/07/27 13:10:47;;;;;;;;;6.50;6.50;26.20;99.90;;;;;;4851133;29;9909;-75
2022/07/27 13:13:23;;;;;;;;;6.75;6.25;26.30;99.90;;;;;;4824123;29;8872;-74
2022/07/27 13:15:57;;;;;;;;;6.50;6.50;26.30;99.90;;;;;;4834970;29;8910;-75
2022/07/27 13:18:30;;;;;;;;;8.00;8.00;26.40;99.90;;;;;;4831658;29;8887;-74
2022/07/27 13:21:03;;;;;;;;;6.75;6.75;26.30;99.90;;;;;;4830174;29;8895;-76
2022/07/27 13:23:35;;;;;;;;;7.00;7.00;26.30;99.90;;;;;;4850620;29;8867;-76
2022/07/27 13:26:05;;;;;;;;;5.00;5.00;26.50;99.90;;;;;;4850250;29;10399;-75
2022/07/27 13:28:39;;;;;;;;;7.25;7.00;26.50;99.90;;;;;;4831676;29;8857;-73
2022/07/27 13:31:11;;;;;;;;;6.50;6.50;26.60;99.90;;;;;;4845277;29;8889;-74
2022/07/27 13:33:44;;;;;;;;;5.75;5.75;26.60;99.90;;;;;;4844281;29;8844;-74
2022/07/27 13:36:14;;;;;;;;;7.00;7.00;26.60;99.90;;;;;;4846852;29;8834;-74
2022/07/27 13:38:46;;;;;;;;;6.75;6.75;26.70;99.90;;;;;;4855200;29;10070;-75
2022/07/27 13:41:21;;;;;;;;;5.25;5.25;26.80;99.90;;;;;;4849098;29;8865;-73
2022/07/27 13:43:52;;;;;;;;;5.00;5.00;26.80;99.90;;;;;;4862808;29;8889;-74
2022/07/27 13:46:35;;;;;;;;;5.25;5.25;26.80;99.90;;;;;;4845996;29;8865;-73
2022/07/27 13:49:07;;;;;;;;;6.25;6.25;26.80;99.90;;;;;;4859916;29;9296;-71